Time;durP1;ratioP1;P1;durP2;ratioP2;P2;SDS_P1;SDS_P2;PMS_P1;PMS_P2;Temp;Humidity;BMP_temperature;BMP_pressure;BME280_temperature;BME280_humidity;BME280_pressure;Samples;Min_cycle;Max_cycle;Signal;HPM_P1;HPM_P2
2023/07/17 00:00:51;;;;;;;9.43;6.73;;;;;;;17.38;100.00;101283.31;5067613;28;21216;-39
2023/07/17 00:03:19;;;;;;;12.53;6.83;;;;;;;17.35;100.00;101288.34;5067628;28;20458;-40
2023/07/17 00:05:51;;;;;;;6.57;5.77;;;;;;;17.32;100.00;101278.03;5066971;28;20466;-39
2023/07/17 00:08:18;;;;;;;12.47;6.97;;;;;;;17.31;100.00;101284.47;5068103;28;20441;-40
2023/07/17 00:10:46;;;;;;;6.70;6.00;;;;;;;17.23;100.00;101277.53;5067654;28;20422;-40
2023/07/17 00:13:14;;;;;;;12.40;7.27;;;;;;;17.22;100.00;101280.44;5068242;28;20692;-40
2023/07/17 00:15:42;;;;;;;6.83;6.13;;;;;;;17.19;100.00;101268.22;5067779;28;20466;-40
2023/07/17 00:18:10;;;;;;;9.47;6.00;;;;;;;17.19;100.00;101267.41;5067626;28;20452;-42
2023/07/17 00:20:37;;;;;;;9.43;6.03;;;;;;;17.18;100.00;101269.28;5068043;28;20446;-39
2023/07/17 00:23:07;;;;;;;10.10;5.77;;;;;;;17.16;100.00;101263.31;5067161;28;20466;-41
2023/07/17 00:25:35;;;;;;;6.97;6.47;;;;;;;17.13;100.00;101263.75;5065210;28;20466;-41
2023/07/17 00:28:04;;;;;;;12.87;6.00;;;;;;;17.12;100.00;101264.78;5067965;28;20480;-40
2023/07/17 00:30:31;;;;;;;6.60;5.27;;;;;;;17.10;100.00;101272.28;5067597;28;20533;-42
2023/07/17 00:33:00;;;;;;;10.03;5.87;;;;;;;17.07;100.00;101273.56;5067152;28;21048;-39
2023/07/17 00:35:27;;;;;;;9.70;5.70;;;;;;;17.08;100.00;101267.09;5066546;28;21031;-41
2023/07/17 00:37:55;;;;;;;8.40;5.60;;;;;;;17.07;100.00;101264.66;5067390;28;20434;-39
2023/07/17 00:40:25;;;;;;;15.87;6.70;;;;;;;17.08;100.00;101274.41;5067499;28;20461;-39
2023/07/17 00:42:57;;;;;;;8.63;5.43;;;;;;;17.06;100.00;101265.69;5067130;28;20450;-42
2023/07/17 00:45:25;;;;;;;7.63;5.30;;;;;;;17.05;100.00;101256.78;5066607;28;20579;-40
2023/07/17 00:47:53;;;;;;;10.63;6.30;;;;;;;17.02;100.00;101257.22;5067256;28;20517;-39
2023/07/17 00:50:20;;;;;;;12.73;5.07;;;;;;;17.00;100.00;101248.56;5067458;28;20439;-40
2023/07/17 00:52:50;;;;;;;7.50;5.40;;;;;;;16.98;100.00;101236.38;5067503;28;20474;-40
2023/07/17 00:55:21;;;;;;;5.87;4.90;;;;;;;16.96;100.00;101249.25;5066434;28;20523;-40
2023/07/17 00:57:51;;;;;;;9.97;5.00;;;;;;;16.95;100.00;101261.91;5067935;28;20434;-39
2023/07/17 01:00:20;;;;;;;5.17;4.67;;;;;;;16.92;100.00;101256.97;5067787;28;20812;-40
2023/07/17 01:02:48;;;;;;;7.50;5.33;;;;;;;16.92;100.00;101253.44;5067215;28;20450;-40
2023/07/17 01:05:16;;;;;;;8.20;4.73;;;;;;;16.91;100.00;101255.31;5066952;28;20470;-39
2023/07/17 01:07:44;;;;;;;7.53;4.90;;;;;;;16.91;100.00;101260.69;5066565;28;20897;-39
2023/07/17 01:10:12;;;;;;;5.97;4.53;;;;;;;16.89;100.00;101256.59;5067759;28;20430;-40
2023/07/17 01:12:40;;;;;;;7.73;4.20;;;;;;;16.88;100.00;101255.75;5070991;28;20470;-42
2023/07/17 01:15:11;;;;;;;8.80;4.73;;;;;;;16.86;100.00;101257.88;5070773;28;20466;-41
2023/07/17 01:17:39;;;;;;;7.00;4.73;;;;;;;16.88;100.00;101258.44;5070842;28;20972;-40
2023/07/17 01:20:09;;;;;;;6.83;4.70;;;;;;;16.89;100.00;101259.28;5071031;28;21101;-40
2023/07/17 01:22:40;;;;;;;5.97;5.23;;;;;;;16.90;100.00;101260.94;5070429;28;20537;-39
2023/07/17 01:25:10;;;;;;;9.40;4.80;;;;;;;16.92;100.00;101265.03;5070447;28;20527;-41
2023/07/17 01:27:38;;;;;;;5.80;4.90;;;;;;;16.97;100.00;101259.78;5071162;28;20468;-41
2023/07/17 01:30:07;;;;;;;9.53;5.00;;;;;;;17.01;100.00;101261.00;5070451;28;20524;-40
2023/07/17 01:32:34;;;;;;;7.90;5.37;;;;;;;17.04;100.00;101255.16;5071356;28;20473;-40
2023/07/17 01:35:03;;;;;;;6.97;4.40;;;;;;;17.07;100.00;101245.78;5070205;28;21084;-40
2023/07/17 01:37:32;;;;;;;4.83;4.43;;;;;;;17.09;100.00;101247.22;5070299;28;21064;-40
2023/07/17 01:39:59;;;;;;;6.80;4.70;;;;;;;17.11;100.00;101247.00;5070266;28;20441;-41
2023/07/17 01:42:29;;;;;;;4.53;4.13;;;;;;;17.13;100.00;101248.41;5070023;28;21046;-42
2023/07/17 01:44:57;;;;;;;7.93;4.30;;;;;;;17.14;100.00;101247.34;5069828;28;20496;-43
2023/07/17 01:47:25;;;;;;;7.50;4.50;;;;;;;17.17;100.00;101248.78;5069990;28;20512;-41
2023/07/17 01:49:52;;;;;;;8.13;5.23;;;;;;;17.19;100.00;101243.16;5070243;28;20441;-40
2023/07/17 01:52:20;;;;;;;6.20;4.53;;;;;;;17.19;100.00;101245.84;5069486;28;20468;-40
2023/07/17 01:54:48;;;;;;;13.47;5.10;;;;;;;17.22;100.00;101248.09;5069551;28;20516;-41
2023/07/17 01:57:16;;;;;;;7.17;4.53;;;;;;;17.25;100.00;101244.94;5069657;28;20430;-41
2023/07/17 01:59:45;;;;;;;11.67;5.30;;;;;;;17.26;100.00;101243.91;5070605;28;20450;-40
2023/07/17 02:02:12;;;;;;;8.43;6.13;;;;;;;17.28;100.00;101236.41;5069753;28;21001;-40
2023/07/17 02:04:40;;;;;;;6.67;4.60;;;;;;;17.31;100.00;101246.72;5069019;28;20546;-41
2023/07/17 02:07:08;;;;;;;5.50;4.20;;;;;;;17.33;100.00;101239.22;5070117;28;20465;-41
2023/07/17 02:09:36;;;;;;;7.40;4.53;;;;;;;17.37;100.00;101252.03;5069456;28;20470;-40
2023/07/17 02:12:04;;;;;;;7.23;4.10;;;;;;;17.36;100.00;101252.25;5069093;28;20450;-41
2023/07/17 02:14:32;;;;;;;8.10;4.83;;;;;;;17.36;100.00;101250.38;5068837;28;20462;-42
2023/07/17 02:17:02;;;;;;;13.07;4.90;;;;;;;17.39;100.00;101257.16;5069615;28;20507;-41
2023/07/17 02:19:32;;;;;;;8.00;4.83;;;;;;;17.39;100.00;101251.78;5069374;28;20525;-41
2023/07/17 02:22:00;;;;;;;5.10;4.10;;;;;;;17.40;100.00;101256.13;5068331;28;20511;-43
2023/07/17 02:24:28;;;;;;;10.10;5.03;;;;;;;17.42;100.00;101257.53;5068911;28;20538;-40
2023/07/17 02:26:58;;;;;;;4.80;4.30;;;;;;;17.41;100.00;101255.09;5069474;28;20525;-41
2023/07/17 02:29:26;;;;;;;7.40;4.80;;;;;;;17.44;100.00;101251.94;5069109;28;21015;-45
2023/07/17 02:31:54;;;;;;;5.10;4.60;;;;;;;17.45;100.00;101251.69;5068941;28;20572;-42
2023/07/17 02:34:23;;;;;;;14.03;5.47;;;;;;;17.44;100.00;101254.63;5068808;28;20469;-40
2023/07/17 02:36:53;;;;;;;4.73;4.33;;;;;;;17.42;100.00;101257.53;5069615;28;20487;-43
2023/07/17 02:39:21;;;;;;;12.23;5.20;;;;;;;17.44;100.00;101263.53;5068813;28;20513;-41
2023/07/17 02:41:49;;;;;;;6.33;4.80;;;;;;;17.47;100.00;101259.56;5069424;28;20450;-40
2023/07/17 02:44:16;;;;;;;6.10;4.30;;;;;;;17.47;100.00;101262.28;5068695;28;20490;-42
2023/07/17 02:46:44;;;;;;;6.47;4.80;;;;;;;17.40;100.00;101265.06;5068685;28;20438;-42
2023/07/17 02:49:13;;;;;;;5.13;4.10;;;;;;;17.41;100.00;101268.56;5069019;28;20430;-41
2023/07/17 02:51:42;;;;;;;8.70;5.07;;;;;;;17.37;100.00;101270.91;5068696;28;20436;-41
2023/07/17 02:54:10;;;;;;;6.00;4.40;;;;;;;17.31;100.00;101271.81;5068129;28;20470;-41
2023/07/17 02:56:38;;;;;;;7.27;5.13;;;;;;;17.27;100.00;101280.56;5069357;28;20462;-40
2023/07/17 02:59:06;;;;;;;9.63;4.83;;;;;;;17.22;100.00;101296.59;5068606;28;20430;-43
2023/07/17 03:01:33;;;;;;;11.27;5.37;;;;;;;17.08;100.00;101275.19;5069321;28;20469;-41
2023/07/17 03:04:01;;;;;;;9.73;5.00;;;;;;;16.98;100.00;101280.31;5068208;28;20462;-41
2023/07/17 03:06:29;;;;;;;6.63;5.17;;;;;;;16.92;100.00;101270.44;5068285;28;20518;-41
2023/07/17 03:08:58;;;;;;;5.40;4.77;;;;;;;16.88;100.00;101276.47;5068446;28;20468;-41
2023/07/17 03:11:25;;;;;;;5.93;5.27;;;;;;;16.82;100.00;101266.59;5067568;28;20460;-40
2023/07/17 03:13:53;;;;;;;5.83;5.20;;;;;;;16.81;100.00;101257.72;5067317;28;20530;-41
2023/07/17 03:16:21;;;;;;;7.90;5.93;;;;;;;16.75;100.00;101264.00;5068593;28;20873;-40
2023/07/17 03:18:48;;;;;;;9.03;4.93;;;;;;;16.73;100.00;101268.78;5068321;28;20443;-46
2023/07/17 03:21:16;;;;;;;6.37;5.60;;;;;;;16.70;100.00;101258.44;5067399;28;20481;-40
2023/07/17 03:23:45;;;;;;;7.53;5.10;;;;;;;16.68;100.00;101257.88;5067744;28;21084;-41
2023/07/17 03:26:15;;;;;;;6.63;6.00;;;;;;;16.69;100.00;101266.78;5068215;28;20438;-41
2023/07/17 03:28:42;;;;;;;5.90;5.40;;;;;;;16.69;100.00;101267.59;5067830;28;20516;-42
2023/07/17 03:31:10;;;;;;;6.23;5.67;;;;;;;16.66;100.00;101261.84;5069001;28;20948;-40
2023/07/17 03:33:40;;;;;;;6.00;5.43;;;;;;;16.63;100.00;101255.03;5067451;28;20576;-40
2023/07/17 03:36:10;;;;;;;8.60;6.80;;;;;;;16.62;100.00;101255.22;5068783;28;20435;-42
2023/07/17 03:38:37;;;;;;;7.70;6.90;;;;;;;16.61;100.00;101257.09;5068127;28;20433;-41
2023/07/17 03:41:06;;;;;;;8.33;6.40;;;;;;;16.61;100.00;101267.06;5067561;28;20460;-40
2023/07/17 03:43:35;;;;;;;11.40;7.13;;;;;;;16.57;100.00;101272.91;5067314;28;20450;-43
2023/07/17 03:46:02;;;;;;;9.93;5.70;;;;;;;16.53;100.00;101268.97;5067833;28;20434;-42
2023/07/17 03:48:31;;;;;;;8.90;6.70;;;;;;;16.51;100.00;101268.38;5068167;28;20804;-41
2023/07/17 03:50:58;;;;;;;8.10;6.00;;;;;;;16.51;100.00;101262.16;5068358;28;20442;-41
2023/07/17 03:53:30;;;;;;;8.53;6.40;;;;;;;16.52;100.00;101269.19;5067169;28;20472;-43
2023/07/17 03:55:58;;;;;;;10.53;6.57;;;;;;;16.54;100.00;101265.28;5067897;28;20481;-41
2023/07/17 03:58:27;;;;;;;7.40;6.70;;;;;;;16.57;100.00;101275.59;5067960;28;20437;-41
2023/07/17 04:00:56;;;;;;;11.73;6.13;;;;;;;16.60;100.00;101282.41;5067395;28;20453;-43
2023/07/17 04:03:24;;;;;;;9.83;7.70;;;;;;;16.61;100.00;101280.53;5066673;28;20442;-43
2023/07/17 04:05:52;;;;;;;16.03;7.87;;;;;;;16.64;100.00;101290.84;5067351;28;20435;-43
2023/07/17 04:08:20;;;;;;;11.30;6.67;;;;;;;16.65;100.00;101284.41;5067895;28;20508;-41
2023/07/17 04:10:48;;;;;;;9.57;6.63;;;;;;;16.64;100.00;101288.13;5067616;28;20435;-41
2023/07/17 04:13:16;;;;;;;8.03;7.33;;;;;;;16.67;100.00;101293.06;5066957;28;20493;-40
2023/07/17 04:15:44;;;;;;;11.40;8.10;;;;;;;16.68;100.00;101298.25;5066593;28;20478;-42
2023/07/17 04:18:13;;;;;;;10.27;8.13;;;;;;;16.72;100.00;101293.25;5067117;28;20519;-40
2023/07/17 04:20:41;;;;;;;6.83;6.37;;;;;;;16.76;100.00;101300.66;5066746;28;20946;-41
2023/07/17 04:23:10;;;;;;;13.43;7.93;;;;;;;16.80;100.00;101306.41;5067106;28;20450;-44
2023/07/17 04:25:39;;;;;;;8.13;7.33;;;;;;;16.81;100.00;101306.22;5066519;28;20466;-41
2023/07/17 04:28:07;;;;;;;11.80;8.77;;;;;;;16.81;100.00;101295.44;5067343;28;20835;-41
2023/07/17 04:30:36;;;;;;;15.03;8.77;;;;;;;16.85;100.00;101295.78;5067267;28;20434;-39
2023/07/17 04:33:05;;;;;;;11.67;8.27;;;;;;;16.89;100.00;101300.53;5067376;28;20530;-41
2023/07/17 04:35:37;;;;;;;13.87;9.27;;;;;;;16.92;100.00;101283.06;5065164;28;20839;-40
2023/07/17 04:38:05;;;;;;;10.43;8.87;;;;;;;16.97;100.00;101288.59;5066994;28;20514;-43
2023/07/17 04:40:34;;;;;;;11.63;8.90;;;;;;;17.01;100.00;101282.56;5056872;28;20446;-41
2023/07/17 04:43:02;;;;;;;9.70;8.63;;;;;;;17.08;100.00;101283.28;5057383;28;20886;-42
2023/07/17 04:45:30;;;;;;;9.47;8.57;;;;;;;17.15;100.00;101280.50;5066846;28;20455;-43
2023/07/17 04:47:58;;;;;;;11.17;9.07;;;;;;;17.24;100.00;101273.75;5067780;28;20457;-43
2023/07/17 04:50:26;;;;;;;10.83;9.43;;;;;;;17.35;100.00;101282.97;5068459;28;20468;-42
2023/07/17 04:52:55;;;;;;;8.60;7.90;;;;;;;17.42;100.00;101265.63;5067728;28;20446;-41
2023/07/17 04:55:24;;;;;;;9.43;7.40;;;;;;;17.49;100.00;101274.47;5068687;28;20505;-41
2023/07/17 04:57:52;;;;;;;8.77;7.67;;;;;;;17.59;100.00;101273.94;5070156;28;20426;-40
2023/07/17 05:00:20;;;;;;;9.33;8.20;;;;;;;17.75;100.00;101277.84;5071057;28;20460;-38
2023/07/17 05:02:47;;;;;;;9.00;8.30;;;;;;;17.82;100.00;101279.41;5068491;28;20457;-43
2023/07/17 05:05:16;;;;;;;10.93;8.20;;;;;;;17.95;100.00;101271.09;5069182;28;20821;-41
2023/07/17 05:07:43;;;;;;;8.70;7.63;;;;;;;18.06;100.00;101269.47;5065107;28;20470;-41
2023/07/17 05:10:14;;;;;;;8.30;7.50;;;;;;;18.17;100.00;101277.59;5067636;28;20517;-42
2023/07/17 05:12:42;;;;;;;11.13;8.30;;;;;;;18.45;100.00;101271.50;5067848;28;20461;-41
2023/07/17 05:15:11;;;;;;;10.50;7.40;;;;;;;18.61;100.00;101259.16;5067047;28;20994;-43
2023/07/17 05:17:39;;;;;;;9.33;8.50;;;;;;;19.02;100.00;101272.50;5068084;28;21043;-44
2023/07/17 05:20:09;;;;;;;9.93;7.87;;;;;;;19.61;100.00;101270.41;5066857;28;20987;-41
2023/07/17 05:22:37;;;;;;;9.90;8.43;;;;;;;19.95;100.00;101260.44;5067401;28;20454;-42
2023/07/17 05:25:06;;;;;;;9.60;8.60;;;;;;;20.69;100.00;101262.69;5067370;28;20458;-40
2023/07/17 05:27:35;;;;;;;9.13;8.33;;;;;;;21.86;100.00;101265.63;5067831;28;20429;-44
2023/07/17 05:30:03;;;;;;;14.70;9.07;;;;;;;23.14;100.00;101250.72;5068200;28;20883;-42
2023/07/17 05:32:31;;;;;;;6.77;6.17;;;;;;;24.34;100.00;101237.53;5067257;28;20515;-42
2023/07/17 05:34:59;;;;;;;6.20;5.70;;;;;;;24.61;100.00;101237.19;5066952;28;20477;-42
2023/07/17 05:37:27;;;;;;;7.53;6.60;;;;;;;24.24;100.00;101232.06;5067215;28;20444;-42
2023/07/17 05:39:55;;;;;;;9.77;6.27;;;;;;;25.34;100.00;101235.47;5067360;28;20928;-42
2023/07/17 05:42:22;;;;;;;6.90;5.20;;;;;;;26.30;100.00;101234.75;5067065;28;20453;-41
2023/07/17 05:44:51;;;;;;;6.73;5.93;;;;;;;26.97;100.00;101228.25;5066538;28;20465;-40
2023/07/17 05:47:19;;;;;;;6.60;6.00;;;;;;;27.66;94.22;101232.22;5067294;28;20457;-42
2023/07/17 05:49:47;;;;;;;8.07;7.30;;;;;;;28.36;93.19;101230.19;5067671;28;20690;-40
2023/07/17 05:52:15;;;;;;;6.37;5.70;;;;;;;28.69;77.42;101231.75;5066488;28;20453;-41
2023/07/17 05:54:42;;;;;;;5.87;5.23;;;;;;;29.38;79.64;101230.53;5066779;28;20224;-40
2023/07/17 05:57:10;;;;;;;6.70;6.00;;;;;;;29.35;73.99;101235.84;5067928;28;20202;-40
2023/07/17 05:59:38;;;;;;;5.60;5.20;;;;;;;29.58;75.00;101240.22;5070713;28;20314;-40
2023/07/17 06:02:07;;;;;;;6.77;6.17;;;;;;;30.29;69.15;101239.25;5070022;28;20684;-40
2023/07/17 06:04:34;;;;;;;7.67;6.90;;;;;;;29.22;60.69;101244.88;5070299;28;20643;-42
2023/07/17 06:07:03;;;;;;;5.93;5.23;;;;;;;28.16;66.78;101247.84;5070754;28;20192;-45
2023/07/17 06:09:31;;;;;;;8.93;6.30;;;;;;;28.54;67.59;101238.34;5070445;28;20210;-40
2023/07/17 06:11:59;;;;;;;6.07;5.07;;;;;;;28.96;64.82;101242.72;5069850;28;20219;-39
2023/07/17 06:14:27;;;;;;;7.00;5.50;;;;;;;28.94;68.50;101247.69;5069905;28;20461;-40
2023/07/17 06:16:55;;;;;;;6.10;5.60;;;;;;;29.51;66.49;101243.41;5070452;28;20247;-39
2023/07/17 06:19:24;;;;;;;6.10;5.50;;;;;;;29.81;59.67;101249.31;5070398;28;20208;-40
2023/07/17 06:21:52;;;;;;;5.93;4.90;;;;;;;30.21;58.96;101236.47;5069854;28;20266;-41
2023/07/17 06:24:19;;;;;;;7.43;5.63;;;;;;;30.19;59.77;101250.56;5072669;28;20231;-42
2023/07/17 06:26:48;;;;;;;5.07;4.67;;;;;;;29.63;55.00;101246.41;5070334;28;20195;-39
2023/07/17 06:29:15;;;;;;;6.10;5.50;;;;;;;29.40;60.03;101244.78;5070280;28;20210;-41
2023/07/17 06:31:43;;;;;;;5.30;4.90;;;;;;;29.63;57.49;101242.84;5068274;28;20278;-39
2023/07/17 06:34:11;;;;;;;5.30;4.80;;;;;;;29.67;57.78;101243.03;5069920;28;20219;-42
2023/07/17 06:36:40;;;;;;;5.33;4.83;;;;;;;29.49;58.47;101231.91;5070914;28;20299;-42
2023/07/17 06:39:08;;;;;;;7.47;5.30;;;;;;;29.58;54.72;101232.00;5070243;28;20223;-42
2023/07/17 06:41:36;;;;;;;7.43;4.63;;;;;;;30.07;53.05;101239.31;5070393;28;20231;-39
2023/07/17 06:44:04;;;;;;;8.43;4.83;;;;;;;29.96;54.52;101233.25;5069416;28;20212;-39
2023/07/17 06:46:31;;;;;;;5.40;4.90;;;;;;;29.75;54.65;101250.56;5070203;28;20188;-39
2023/07/17 06:48:59;;;;;;;8.07;5.15;;;;;;;29.20;56.60;101244.41;5069555;28;20231;-40
2023/07/17 06:51:27;;;;;;;6.17;5.37;;;;;;;29.06;56.83;101245.22;5069272;28;20982;-40
2023/07/17 06:53:56;;;;;;;8.40;5.80;;;;;;;28.31;58.54;101246.75;5071131;28;20302;-42
2023/07/17 06:56:23;;;;;;;6.53;5.10;;;;;;;27.25;59.73;101251.97;5070009;28;20713;-42
2023/07/17 06:58:52;;;;;;;7.10;5.73;;;;;;;26.22;63.69;101258.06;5056068;28;20203;-39
2023/07/17 07:01:20;;;;;;;6.60;5.40;;;;;;;26.33;67.41;101267.81;5061045;28;20504;-39
2023/07/17 07:03:47;;;;;;;6.13;5.47;;;;;;;26.64;67.71;101259.28;5068126;28;20462;-39
2023/07/17 07:06:15;;;;;;;5.90;5.23;;;;;;;27.14;64.96;101252.41;5046454;28;20457;-42
2023/07/17 07:08:43;;;;;;;6.80;5.40;;;;;;;26.07;65.91;101263.66;5068153;28;20422;-42
2023/07/17 07:11:12;;;;;;;9.67;5.97;;;;;;;27.00;64.93;101257.75;5068306;28;20430;-41
2023/07/17 07:13:42;;;;;;;9.77;6.57;;;;;;;28.01;62.30;101254.38;5069876;28;20499;-45
2023/07/17 07:16:13;;;;;;;7.33;6.40;;;;;;;28.72;60.43;101253.09;5058862;28;20470;-44
2023/07/17 07:18:41;;;;;;;7.07;4.90;;;;;;;28.25;58.76;101250.69;5068446;28;20469;-42
2023/07/17 07:21:08;;;;;;;8.00;4.80;;;;;;;28.40;58.69;101259.47;5069146;28;20209;-42
2023/07/17 07:23:36;;;;;;;10.63;5.13;;;;;;;27.70;61.58;101257.91;5069684;28;20223;-43
2023/07/17 07:26:04;;;;;;;7.93;6.03;;;;;;;26.66;64.58;101262.53;5069965;28;20477;-42
2023/07/17 07:28:33;;;;;;;6.27;5.40;;;;;;;25.60;69.30;101279.84;5070137;28;21154;-43
2023/07/17 07:31:02;;;;;;;10.30;6.17;;;;;;;24.78;75.46;101279.41;5069664;28;20461;-45
2023/07/17 07:33:29;;;;;;;9.03;5.63;;;;;;;24.48;81.11;101278.66;5069073;28;20450;-43
2023/07/17 07:35:57;;;;;;;8.60;5.93;;;;;;;23.94;91.71;101275.66;5044368;28;20638;-41
2023/07/17 07:38:25;;;;;;;9.00;5.97;;;;;;;23.98;96.00;101274.03;5068629;28;20954;-40
2023/07/17 07:40:53;;;;;;;10.70;6.90;;;;;;;23.57;98.72;101281.31;5067699;28;20426;-39
2023/07/17 07:43:21;;;;;;;14.53;6.93;;;;;;;23.22;99.00;101289.38;5068330;28;20453;-42
2023/07/17 07:45:50;;;;;;;8.53;6.03;;;;;;;23.42;100.00;101286.72;5069245;28;20877;-41
2023/07/17 07:48:18;;;;;;;8.33;5.73;;;;;;;24.01;94.23;101295.28;5043420;28;20442;-42
2023/07/17 07:50:46;;;;;;;8.43;5.53;;;;;;;24.75;87.32;101299.03;5068906;28;20440;-45
2023/07/17 07:53:14;;;;;;;11.97;6.40;;;;;;;25.08;87.30;101296.78;5046355;28;20505;-42
2023/07/17 07:55:42;;;;;;;7.47;5.57;;;;;;;24.98;86.35;101299.53;5070300;28;20834;-44
2023/07/17 07:58:10;;;;;;;7.50;5.60;;;;;;;25.67;80.45;101299.47;5067522;28;20532;-45
2023/07/17 08:00:37;;;;;;;7.33;5.63;;;;;;;25.51;78.31;101292.47;5067108;28;20883;-41
2023/07/17 08:03:06;;;;;;;10.60;6.00;;;;;;;25.84;77.11;101298.00;5064505;28;20852;-41
2023/07/17 08:05:34;;;;;;;9.60;6.37;;;;;;;25.31;80.21;101312.50;5065034;28;20525;-42
2023/07/17 08:08:02;;;;;;;7.33;6.63;;;;;;;24.88;79.96;101318.69;5068201;28;20421;-42
2023/07/17 08:10:30;;;;;;;9.23;5.27;;;;;;;24.20;81.13;101346.25;5041503;28;20502;-42
2023/07/17 08:12:59;;;;;;;5.10;3.77;;;;;;;23.49;74.46;101353.47;5068749;28;20545;-41
2023/07/17 08:15:27;;;;;;;3.90;3.60;;;;;;;22.82;78.21;101363.47;5068585;28;20446;-41
2023/07/17 08:17:54;;;;;;;4.03;3.50;;;;;;;22.31;82.97;101370.38;5069709;28;20480;-43
2023/07/17 08:20:24;;;;;;;7.60;4.20;;;;;;;21.84;91.78;101368.25;5067039;28;20548;-41
2023/07/17 08:22:55;;;;;;;7.93;3.43;;;;;;;21.14;100.00;101364.72;5068588;28;20446;-42
2023/07/17 08:25:23;;;;;;;4.93;3.87;;;;;;;21.11;100.00;101360.63;5022682;28;20465;-42
2023/07/17 08:27:51;;;;;;;5.73;3.63;;;;;;;20.96;100.00;101366.63;5067411;28;20437;-41
2023/07/17 08:30:18;;;;;;;5.77;4.20;;;;;;;20.97;100.00;101365.53;5066560;28;20491;-40
2023/07/17 08:32:46;;;;;;;6.13;4.60;;;;;;;20.70;100.00;101361.88;5067737;28;20490;-44
2023/07/17 08:35:14;;;;;;;5.27;4.00;;;;;;;20.55;100.00;101369.00;5067160;28;20454;-44
2023/07/17 08:37:43;;;;;;;6.60;4.47;;;;;;;20.50;100.00;101368.88;5066926;28;20465;-40
2023/07/17 08:40:11;;;;;;;7.53;4.33;;;;;;;20.37;100.00;101370.03;5066397;28;20438;-41
2023/07/17 08:42:44;;;;;;;6.83;4.80;;;;;;;20.27;100.00;101365.28;5066984;28;20511;-40
2023/07/17 08:45:13;;;;;;;6.80;4.70;;;;;;;20.05;100.00;101356.19;5016097;28;20465;-40
2023/07/17 08:47:41;;;;;;;3.90;3.60;;;;;;;20.16;100.00;101366.13;5060570;28;21188;-41
2023/07/17 08:50:12;;;;;;;9.30;4.70;;;;;;;20.05;100.00;101360.78;5040389;28;20464;-40
2023/07/17 08:52:40;;;;;;;4.40;4.00;;;;;;;20.22;100.00;101359.72;5067675;28;20873;-42
2023/07/17 08:55:09;;;;;;;5.97;4.60;;;;;;;20.28;100.00;101363.41;5067718;28;20433;-42
2023/07/17 08:57:38;;;;;;;5.50;4.20;;;;;;;20.13;100.00;101366.63;5067146;28;21046;-40
2023/07/17 09:00:08;;;;;;;10.03;4.20;;;;;;;20.13;100.00;101368.53;5043471;28;20544;-40
2023/07/17 09:02:35;;;;;;;4.63;4.23;;;;;;;20.40;100.00;101364.94;5066945;28;20471;-41
2023/07/17 09:05:04;;;;;;;5.10;4.30;;;;;;;20.61;100.00;101370.72;5067413;28;21261;-41
2023/07/17 09:07:32;;;;;;;6.07;4.50;;;;;;;21.07;100.00;101364.03;5066884;28;20425;-41
2023/07/17 09:10:19;;;;;;;7.30;5.37;;;;;;;21.52;100.00;101364.66;5067715;28;20951;-40
2023/07/17 09:12:52;;;;;;;8.17;6.13;;;;;;;21.43;100.00;101348.00;5047890;28;20439;-43
2023/07/17 09:15:20;;;;;;;6.47;5.47;;;;;;;21.25;100.00;101355.63;5048717;28;20924;-42
2023/07/17 09:17:48;;;;;;;6.40;5.80;;;;;;;21.32;100.00;101357.09;5049473;28;20884;-41
2023/07/17 09:20:17;;;;;;;12.17;5.90;;;;;;;21.83;100.00;101353.03;5048913;28;20470;-41
2023/07/17 09:22:45;;;;;;;8.17;5.43;;;;;;;21.98;100.00;101358.66;5049715;28;20545;-41
2023/07/17 09:25:14;;;;;;;11.30;6.00;;;;;;;21.82;100.00;101361.47;5050329;28;20418;-41
2023/07/17 09:27:46;;;;;;;9.70;5.40;;;;;;;21.89;100.00;101372.97;5048128;28;20439;-43
2023/07/17 09:30:15;;;;;;;9.97;6.33;;;;;;;21.89;100.00;101371.06;5049746;28;20447;-42
2023/07/17 09:32:44;;;;;;;6.43;5.70;;;;;;;22.24;100.00;101369.78;5053170;28;20452;-41
2023/07/17 09:35:13;;;;;;;5.30;4.70;;;;;;;21.99;100.00;101357.59;5054112;28;20430;-39
2023/07/17 09:37:42;;;;;;;12.57;4.77;;;;;;;21.74;100.00;101376.31;5054292;28;20470;-41
2023/07/17 09:40:18;;;;;;;4.60;4.13;;;;;;;21.68;100.00;101381.94;5052294;28;20497;-41
2023/07/17 09:42:53;;;;;;;8.43;4.40;;;;;;;21.32;100.00;101392.38;5052187;28;20450;-41
2023/07/17 09:45:21;;;;;;;4.50;4.30;;;;;;;21.35;100.00;101388.31;5054013;28;20774;-42
2023/07/17 09:47:50;;;;;;;4.50;4.10;;;;;;;20.82;100.00;101389.72;5052023;28;20457;-42
2023/07/17 09:50:19;;;;;;;5.23;4.50;;;;;;;20.88;100.00;101391.44;5052388;28;20458;-41
2023/07/17 09:52:50;;;;;;;5.23;3.73;;;;;;;21.01;100.00;101394.88;5052657;28;20447;-40
2023/07/17 09:55:20;;;;;;;4.10;3.90;;;;;;;21.25;100.00;101397.16;5051024;28;20423;-42
2023/07/17 09:57:51;;;;;;;4.70;4.30;;;;;;;21.28;100.00;101393.94;5049581;28;20989;-40
2023/07/17 10:00:21;;;;;;;6.00;4.70;;;;;;;21.22;100.00;101389.50;5052133;28;20466;-40
2023/07/17 10:02:56;;;;;;;6.87;4.23;;;;;;;21.13;100.00;101393.72;5050539;28;20447;-41
2023/07/17 10:05:25;;;;;;;4.13;3.93;;;;;;;21.60;100.00;101387.78;5050828;28;20476;-41
2023/07/17 10:07:54;;;;;;;4.63;4.20;;;;;;;21.91;100.00;101385.22;5051568;28;20517;-41
2023/07/17 10:10:22;;;;;;;3.90;3.37;;;;;;;21.96;100.00;101384.44;5050096;28;20469;-42
2023/07/17 10:12:51;;;;;;;4.10;3.80;;;;;;;22.27;100.00;101383.66;5050790;28;20541;-41
2023/07/17 10:15:19;;;;;;;4.80;4.40;;;;;;;22.63;100.00;101378.50;5050840;28;20842;-42
2023/07/17 10:17:55;;;;;;;3.87;3.77;;;;;;;22.82;100.00;101374.34;5051785;28;21164;-43
2023/07/17 10:20:23;;;;;;;4.53;4.23;;;;;;;22.95;100.00;101382.84;5051759;28;20987;-41
2023/07/17 10:22:51;;;;;;;4.67;4.40;;;;;;;23.12;100.00;101391.63;5050933;28;20451;-40
2023/07/17 10:25:28;;;;;;;5.47;4.50;;;;;;;23.40;100.00;101386.91;5051062;28;20438;-41
2023/07/17 10:27:59;;;;;;;4.80;4.47;;;;;;;23.35;100.00;101390.41;5051879;28;20446;-41
2023/07/17 10:30:29;;;;;;;5.00;4.50;;;;;;;23.42;100.00;101393.72;5049180;28;20555;-46
2023/07/17 10:33:10;;;;;;;6.30;5.40;;;;;;;22.75;100.00;101380.00;5049994;28;20504;-40
2023/07/17 10:35:49;;;;;;;5.40;5.10;;;;;;;22.57;100.00;101389.34;5050566;28;20521;-42
2023/07/17 10:38:19;;;;;;;8.50;5.40;;;;;;;22.77;100.00;101377.00;5049807;28;21289;-42
2023/07/17 10:40:47;;;;;;;5.53;5.03;;;;;;;22.92;100.00;101379.81;5049097;28;20494;-41
2023/07/17 10:43:18;;;;;;;8.87;5.30;;;;;;;23.23;100.00;101381.63;5049329;28;20453;-41
2023/07/17 10:45:47;;;;;;;11.30;5.77;;;;;;;23.47;100.00;101390.22;5049559;28;21164;-43
2023/07/17 10:48:17;;;;;;;6.23;5.70;;;;;;;23.46;100.00;101389.38;5050362;28;20430;-42
2023/07/17 10:50:49;;;;;;;4.87;4.50;;;;;;;23.19;100.00;101382.41;5050319;28;20463;-41
2023/07/17 10:53:17;;;;;;;6.40;5.10;;;;;;;22.96;100.00;101391.81;5050338;28;20461;-41
2023/07/17 10:55:46;;;;;;;8.30;5.23;;;;;;;22.83;100.00;101403.16;5049543;28;20441;-42
2023/07/17 10:58:14;;;;;;;9.10;5.27;;;;;;;23.19;100.00;101394.13;5050194;28;21187;-42
2023/07/17 11:00:45;;;;;;;5.93;5.33;;;;;;;23.17;99.29;101399.03;5049225;28;20520;-40
2023/07/17 11:03:15;;;;;;;4.70;4.40;;;;;;;23.44;98.02;101398.91;5049219;28;20546;-41
2023/07/17 11:05:45;;;;;;;5.90;4.90;;;;;;;23.55;96.20;101401.41;5050555;28;20434;-44
2023/07/17 11:08:14;;;;;;;8.53;4.80;;;;;;;23.62;88.65;101401.16;5049767;28;20438;-41
2023/07/17 11:10:44;;;;;;;8.10;4.83;;;;;;;23.90;90.49;101386.25;5049302;28;20461;-41
2023/07/17 11:13:13;;;;;;;6.40;4.40;;;;;;;24.34;86.30;101398.34;5049482;28;20506;-41
2023/07/17 11:15:44;;;;;;;5.53;5.00;;;;;;;24.67;85.35;101405.94;5049637;28;20483;-41
2023/07/17 11:18:12;;;;;;;4.97;4.43;;;;;;;24.64;82.85;101411.94;5048271;28;20477;-44
2023/07/17 11:20:40;;;;;;;6.43;4.53;;;;;;;24.82;79.36;101393.44;5049364;28;20470;-41
2023/07/17 11:23:11;;;;;;;4.90;4.40;;;;;;;24.94;79.72;101410.34;5048982;28;20451;-40